createdAt,value
2019-05-29T00:00:27.705Z,17.26
2019-05-29T00:01:27.737Z,16.97
2019-05-29T00:02:27.774Z,17.26
2019-05-29T00:03:27.813Z,17.16
2019-05-29T00:04:27.855Z,17.26
2019-05-29T00:05:27.897Z,17.26
2019-05-29T00:06:27.941Z,17.55
2019-05-29T00:07:27.978Z,17.26
2019-05-29T00:08:28.020Z,17.83
2019-05-29T00:09:28.061Z,18.02
2019-05-29T00:10:28.099Z,18.69
2019-05-29T00:11:28.150Z,18.40
2019-05-29T00:12:28.183Z,19.55
2019-05-29T00:13:28.231Z,19.55
2019-05-29T00:14:28.271Z,19.35
2019-05-29T00:15:28.304Z,20.50
2019-05-29T00:16:28.347Z,21.35
2019-05-29T00:17:28.386Z,22.20
2019-05-29T00:18:28.428Z,22.68
2019-05-29T00:19:28.469Z,23.92
2019-05-29T00:20:28.517Z,24.59
2019-05-29T00:21:28.551Z,25.07
2019-05-29T00:22:28.590Z,24.97
2019-05-29T00:23:28.634Z,24.59
2019-05-29T00:24:28.680Z,24.59
2019-05-29T00:25:28.722Z,24.59
2019-05-29T00:26:28.754Z,24.40
2019-05-29T00:27:28.796Z,23.83
2019-05-29T00:28:28.848Z,23.35
2019-05-29T00:29:28.879Z,23.44
2019-05-29T00:30:28.919Z,22.78
2019-05-29T00:31:28.964Z,22.11
2019-05-29T00:32:28.999Z,22.88
2019-05-29T00:33:29.043Z,23.92
2019-05-29T00:34:29.100Z,25.07
2019-05-29T00:35:29.122Z,26.12
2019-05-29T00:36:29.162Z,26.59
2019-05-29T00:37:29.205Z,26.31
2019-05-29T00:38:29.244Z,25.45
2019-05-29T00:39:29.285Z,24.97
2019-05-29T00:40:29.323Z,24.97
2019-05-29T00:41:29.366Z,26.21
2019-05-29T00:42:29.408Z,25.54
2019-05-29T00:43:29.445Z,25.83
2019-05-29T00:44:34.398Z,25.83
2019-05-29T00:45:29.528Z,27.07
2019-05-29T00:46:29.566Z,27.83
2019-05-29T00:47:29.616Z,29.53
2019-05-29T00:48:29.650Z,31.16
2019-05-29T00:49:29.693Z,30.77
2019-05-29T00:50:29.729Z,31.05
2019-05-29T00:51:29.778Z,35.15
2019-05-29T00:52:29.809Z,36.68
2019-05-29T00:53:29.850Z,38.58
2019-05-29T00:54:29.891Z,39.06
2019-05-29T00:55:29.931Z,37.34
2019-05-29T00:56:29.973Z,37.73
2019-05-29T00:57:30.014Z,38.20
2019-05-29T00:58:30.053Z,36.39
2019-05-29T00:59:30.095Z,36.30
2019-05-29T01:00:30.135Z,37.63
2019-05-29T01:01:30.177Z,37.63
2019-05-29T01:02:30.214Z,37.44
2019-05-29T01:03:30.255Z,36.10
2019-05-29T01:04:30.294Z,38.58
2019-05-29T01:05:30.342Z,38.20
2019-05-29T01:06:30.379Z,37.63
2019-05-29T01:07:30.425Z,38.68
2019-05-29T01:08:30.458Z,40.87
2019-05-29T01:09:30.497Z,40.20
2019-05-29T01:10:30.536Z,39.92
2019-05-29T01:11:30.577Z,38.78
2019-05-29T01:12:30.625Z,38.10
2019-05-29T01:13:30.662Z,37.63
2019-05-29T01:14:30.698Z,37.34
2019-05-29T01:15:30.746Z,37.06
2019-05-29T01:16:30.778Z,35.53
2019-05-29T01:17:30.817Z,34.67
2019-05-29T01:18:30.858Z,34.11
2019-05-29T01:19:30.898Z,33.15
2019-05-29T01:20:30.939Z,31.72
2019-05-29T01:21:30.979Z,31.72
2019-05-29T01:22:31.020Z,31.53
2019-05-29T01:23:31.059Z,33.15
2019-05-29T01:24:31.102Z,34.11
2019-05-29T01:25:31.162Z,35.15
2019-05-29T01:26:31.198Z,35.82
2019-05-29T01:27:31.220Z,34.39
2019-05-29T01:28:31.261Z,36.01
2019-05-29T01:29:31.302Z,35.35
2019-05-29T01:30:31.340Z,34.77
2019-05-29T01:31:31.386Z,33.72
2019-05-29T01:32:31.423Z,35.25
2019-05-29T01:33:31.469Z,37.63
2019-05-29T01:34:31.502Z,36.39
2019-05-29T01:35:31.543Z,35.53
2019-05-29T01:36:31.583Z,36.96
2019-05-29T01:37:31.623Z,37.34
2019-05-29T01:38:31.663Z,37.54
2019-05-29T01:39:31.702Z,37.63
2019-05-29T01:40:31.742Z,37.92
2019-05-29T01:41:31.784Z,37.73
2019-05-29T01:42:31.824Z,36.96
2019-05-29T01:43:31.868Z,36.77
2019-05-29T01:44:31.905Z,36.30
2019-05-29T01:45:31.947Z,38.10
2019-05-29T01:46:31.985Z,38.49
2019-05-29T01:47:32.023Z,37.82
2019-05-29T01:48:32.069Z,37.63
2019-05-29T01:49:32.106Z,36.49
2019-05-29T01:50:32.146Z,36.49
2019-05-29T01:51:32.187Z,37.44
2019-05-29T01:52:32.226Z,36.87
2019-05-29T01:53:32.266Z,36.10
2019-05-29T01:54:32.305Z,37.06
2019-05-29T01:55:32.347Z,36.01
2019-05-29T01:56:32.386Z,35.25
2019-05-29T01:57:32.432Z,34.96
2019-05-29T01:58:32.467Z,34.48
2019-05-29T01:59:32.507Z,35.63
2019-05-29T02:00:32.551Z,35.91
2019-05-29T02:01:32.588Z,36.68
2019-05-29T02:02:32.631Z,37.25
2019-05-29T02:03:32.679Z,35.35
2019-05-29T02:04:32.714Z,36.30
2019-05-29T02:05:32.756Z,36.68
2019-05-29T02:06:32.788Z,36.01
2019-05-29T02:07:32.831Z,36.39
2019-05-29T02:08:32.871Z,38.01
2019-05-29T02:09:32.917Z,38.78
2019-05-29T02:10:32.949Z,37.25
2019-05-29T02:11:33.007Z,36.68
2019-05-29T02:12:33.028Z,36.30
2019-05-29T02:13:33.069Z,36.96
2019-05-29T02:14:33.145Z,38.10
2019-05-29T02:15:34.156Z,37.73
2019-05-29T02:16:33.190Z,38.20
2019-05-29T02:17:33.230Z,38.96
2019-05-29T02:18:33.347Z,39.06
2019-05-29T02:19:33.312Z,38.78
2019-05-29T02:20:33.351Z,39.06
2019-05-29T02:21:33.391Z,38.39
2019-05-29T02:22:33.431Z,38.49
2019-05-29T02:23:33.471Z,38.20
2019-05-29T02:24:33.511Z,38.39
2019-05-29T02:25:33.554Z,37.82
2019-05-29T02:26:33.592Z,36.87
2019-05-29T02:27:33.648Z,37.06
2019-05-29T02:28:33.673Z,37.92
2019-05-29T02:29:33.712Z,38.10
2019-05-29T02:30:33.761Z,37.54
2019-05-29T02:31:33.794Z,37.13
2019-05-29T02:32:33.834Z,36.58
2019-05-29T02:33:33.879Z,36.10
2019-05-29T02:34:33.915Z,36.20
2019-05-29T02:35:33.959Z,36.30
2019-05-29T02:36:33.998Z,36.10
2019-05-29T02:37:34.034Z,36.30
2019-05-29T02:38:34.075Z,36.49
2019-05-29T02:39:34.115Z,38.20
2019-05-29T02:40:34.154Z,37.34
2019-05-29T02:41:34.200Z,38.87
2019-05-29T02:42:34.235Z,38.39
2019-05-29T02:43:34.288Z,42.37
2019-05-29T02:44:34.315Z,49.80
2019-05-29T02:45:52.898Z,49.99
2019-05-29T02:46:34.395Z,47.32
2019-05-29T02:47:34.437Z,47.23
2019-05-29T02:48:34.476Z,45.61
2019-05-29T02:49:34.517Z,46.75
2019-05-29T02:50:34.563Z,46.75
2019-05-29T02:51:34.597Z,44.66
2019-05-29T02:52:34.637Z,45.99
2019-05-29T02:53:34.685Z,43.90
2019-05-29T02:54:34.716Z,44.37
2019-05-29T02:55:34.756Z,44.09
2019-05-29T02:56:34.800Z,43.51
2019-05-29T02:57:34.837Z,42.37
2019-05-29T02:58:34.878Z,41.33
2019-05-29T02:59:34.923Z,39.32
2019-05-29T03:00:34.959Z,37.99
2019-05-29T03:01:34.999Z,35.61
2019-05-29T03:02:35.037Z,34.75
2019-05-29T03:03:39.709Z,33.90
2019-05-29T03:04:35.141Z,33.70
2019-05-29T03:05:35.159Z,32.37
2019-05-29T03:06:35.202Z,31.90
2019-05-29T03:07:35.250Z,31.52
2019-05-29T03:08:35.284Z,31.52
2019-05-29T03:09:35.322Z,31.99
2019-05-29T03:10:35.359Z,30.66
2019-05-29T03:11:35.405Z,30.76
2019-05-29T03:12:35.439Z,30.94
2019-05-29T03:13:35.492Z,30.85
2019-05-29T03:14:35.521Z,30.37
2019-05-29T03:15:35.559Z,29.99
2019-05-29T03:16:35.604Z,29.71
2019-05-29T03:17:35.639Z,29.80
2019-05-29T03:18:35.681Z,29.71
2019-05-29T03:19:35.721Z,29.33
2019-05-29T03:20:35.760Z,29.61
2019-05-29T03:21:35.797Z,29.42
2019-05-29T03:22:35.839Z,28.75
2019-05-29T03:23:36.519Z,29.14
2019-05-29T03:24:35.918Z,29.71
2019-05-29T03:25:37.070Z,29.71
2019-05-29T03:26:35.997Z,30.09
2019-05-29T03:27:36.037Z,30.09
2019-05-29T03:28:36.079Z,29.99
2019-05-29T03:29:36.120Z,30.47
2019-05-29T03:30:44.210Z,29.90
2019-05-29T03:31:45.442Z,29.99
2019-05-29T03:32:45.669Z,29.69
2019-05-29T03:33:45.166Z,29.71
2019-05-29T03:34:42.196Z,29.71
2019-05-29T03:35:43.163Z,28.75
2019-05-29T03:36:43.534Z,28.28
2019-05-29T03:37:36.436Z,27.90
2019-05-29T03:38:36.477Z,27.61
2019-05-29T03:39:36.533Z,27.23
2019-05-29T03:40:36.559Z,26.95
2019-05-29T03:41:36.597Z,26.85
2019-05-29T03:42:36.634Z,26.56
2019-05-29T03:43:36.677Z,26.85
2019-05-29T03:44:36.715Z,27.42
2019-05-29T03:45:37.974Z,27.42
2019-05-29T03:46:42.700Z,27.42
2019-05-29T03:47:37.249Z,28.66
2019-05-29T03:48:38.527Z,28.56
2019-05-29T03:49:37.396Z,28.47
2019-05-29T03:50:38.390Z,28.47
2019-05-29T03:51:38.801Z,31.23
2019-05-29T03:52:39.007Z,31.42
2019-05-29T03:53:38.446Z,32.47
2019-05-29T03:54:38.598Z,32.95
2019-05-29T03:55:37.877Z,33.04
2019-05-29T03:56:38.771Z,33.51
2019-05-29T03:57:38.090Z,33.99
2019-05-29T03:58:37.845Z,33.04
2019-05-29T03:59:37.533Z,34.28
2019-05-29T04:00:45.591Z,34.18
2019-05-29T04:01:37.604Z,33.04
2019-05-29T04:02:38.244Z,33.42
2019-05-29T04:03:38.091Z,34.38
2019-05-29T04:04:38.230Z,33.99
2019-05-29T04:05:38.110Z,33.61
2019-05-29T04:06:37.766Z,35.23
2019-05-29T04:07:38.278Z,36.08
2019-05-29T04:08:38.351Z,35.99
2019-05-29T04:09:37.715Z,36.08
2019-05-29T04:10:39.518Z,35.61
2019-05-29T04:11:38.297Z,37.23
2019-05-29T04:12:38.272Z,38.56
2019-05-29T04:13:38.926Z,37.80
2019-05-29T04:14:38.027Z,38.95
2019-05-29T04:15:38.607Z,41.52
2019-05-29T04:16:58.504Z,42.08
2019-05-29T04:17:38.196Z,43.13
2019-05-29T04:18:38.285Z,43.71
2019-05-29T04:19:38.721Z,43.35
2019-05-29T04:20:38.966Z,41.72
2019-05-29T04:21:38.796Z,44.20
2019-05-29T04:22:38.374Z,46.11
2019-05-29T04:23:38.431Z,44.96
2019-05-29T04:24:38.378Z,44.39
2019-05-29T04:25:42.535Z,46.87
2019-05-29T04:26:38.409Z,49.35
2019-05-29T04:27:38.562Z,47.44
2019-05-29T04:28:39.007Z,48.78
2019-05-29T04:29:38.544Z,48.11
2019-05-29T04:30:39.117Z,50.97
2019-05-29T04:31:38.593Z,50.40
2019-05-29T04:32:38.827Z,49.63
2019-05-29T04:33:38.923Z,52.01
2019-05-29T04:34:39.997Z,52.20
2019-05-29T04:35:39.518Z,53.06
2019-05-29T04:36:39.122Z,53.64
2019-05-29T04:37:39.858Z,56.11
2019-05-29T04:38:40.419Z,53.16
2019-05-29T04:39:39.133Z,55.73
2019-05-29T04:40:39.633Z,59.45
2019-05-29T04:41:39.313Z,58.59
2019-05-29T04:42:40.124Z,60.02
2019-05-29T04:43:39.909Z,56.49
2019-05-29T04:44:41.114Z,55.32
2019-05-29T04:45:40.187Z,57.54
2019-05-29T04:46:40.696Z,58.59
2019-05-29T04:47:39.727Z,52.78
2019-05-29T04:48:40.446Z,51.06
2019-05-29T04:49:39.914Z,49.63
2019-05-29T04:50:40.620Z,50.30
2019-05-29T04:51:40.015Z,49.73
2019-05-29T04:52:40.274Z,47.63
2019-05-29T04:53:39.928Z,45.92
2019-05-29T04:54:40.206Z,44.96
2019-05-29T04:55:39.557Z,44.49
2019-05-29T04:56:39.597Z,50.21
2019-05-29T04:57:39.682Z,52.01
2019-05-29T04:58:39.694Z,50.97
2019-05-29T04:59:39.723Z,51.06
2019-05-29T05:00:39.760Z,48.78
2019-05-29T05:01:39.801Z,49.44
2019-05-29T05:02:39.840Z,48.49
2019-05-29T05:03:39.888Z,51.54
2019-05-29T05:04:39.934Z,52.11
2019-05-29T05:05:39.962Z,54.30
2019-05-29T05:06:40.008Z,53.06
2019-05-29T05:07:40.041Z,54.61
2019-05-29T05:08:40.285Z,63.54
2019-05-29T05:09:40.125Z,62.02
2019-05-29T05:10:40.892Z,66.21
2019-05-29T05:11:40.302Z,63.10
2019-05-29T05:12:40.451Z,65.29
2019-05-29T05:13:40.290Z,63.10
2019-05-29T05:14:40.333Z,60.81
2019-05-29T05:15:40.408Z,63.67
2019-05-29T05:16:40.404Z,66.82
2019-05-29T05:17:40.450Z,68.34
2019-05-29T05:18:40.487Z,67.48
2019-05-29T05:19:40.527Z,65.00
2019-05-29T05:20:40.572Z,63.39
2019-05-29T05:21:40.608Z,64.15
2019-05-29T05:22:41.088Z,62.81
2019-05-29T05:23:40.780Z,63.67
2019-05-29T05:24:43.773Z,61.76
2019-05-29T05:25:41.079Z,62.52
2019-05-29T05:26:40.810Z,62.43
2019-05-29T05:27:40.852Z,63.29
2019-05-29T05:28:44.259Z,69.77
2019-05-29T05:29:40.938Z,68.53
2019-05-29T05:30:41.001Z,66.15
2019-05-29T05:31:41.025Z,63.76
2019-05-29T05:32:41.318Z,69.01
2019-05-29T05:33:41.266Z,69.96
2019-05-29T05:34:41.137Z,68.72
2019-05-29T05:35:41.200Z,71.20
2019-05-29T05:36:41.220Z,72.63
2019-05-29T05:37:41.261Z,71.48
2019-05-29T05:38:41.359Z,69.29
2019-05-29T05:39:41.341Z,68.24
2019-05-29T05:40:43.151Z,70.34
2019-05-29T05:41:41.432Z,68.72
2019-05-29T05:42:41.462Z,67.20
2019-05-29T05:43:41.655Z,67.04
2019-05-29T05:44:41.551Z,70.86
2019-05-29T05:45:41.587Z,68.95
2019-05-29T05:46:41.627Z,70.00
2019-05-29T05:47:54.643Z,70.86
2019-05-29T05:48:41.830Z,76.01
2019-05-29T05:49:41.892Z,74.96
2019-05-29T05:50:41.792Z,78.30
2019-05-29T05:51:44.539Z,77.53
2019-05-29T05:52:41.873Z,77.15
2019-05-29T05:53:41.966Z,74.77
2019-05-29T05:54:41.963Z,76.01
2019-05-29T05:55:42.003Z,75.24
2019-05-29T05:56:42.046Z,75.43
2019-05-29T05:57:42.078Z,74.86
2019-05-29T05:58:42.468Z,75.43
2019-05-29T05:59:42.159Z,75.37
2019-05-29T06:00:42.221Z,78.72
2019-05-29T06:01:42.247Z,75.57
2019-05-29T06:02:42.285Z,78.91
2019-05-29T06:03:42.673Z,77.57
2019-05-29T06:04:42.376Z,78.43
2019-05-29T06:05:42.436Z,77.95
2019-05-29T06:06:42.469Z,76.14
2019-05-29T06:07:42.610Z,79.96
2019-05-29T06:08:42.737Z,79.19
2019-05-29T06:09:42.631Z,75.79
2019-05-29T06:10:42.618Z,79.38
2019-05-29T06:11:42.708Z,75.79
2019-05-29T06:12:42.936Z,73.50
2019-05-29T06:13:42.949Z,79.33
2019-05-29T06:14:42.825Z,80.09
2019-05-29T06:15:43.056Z,79.71
2019-05-29T06:16:42.875Z,76.62
2019-05-29T06:18:00.527Z,80.28
2019-05-29T06:18:43.271Z,80.91
2019-05-29T06:19:43.161Z,77.76
2019-05-29T06:20:43.251Z,80.43
2019-05-29T06:21:43.076Z,80.24
2019-05-29T06:22:43.640Z,78.23
2019-05-29T06:23:43.690Z,79.48
2019-05-29T06:24:43.619Z,78.33
2019-05-29T06:25:43.902Z,76.81
2019-05-29T06:26:43.386Z,76.23
2019-05-29T06:27:43.458Z,78.43
2019-05-29T06:28:43.597Z,79.96
2019-05-29T06:29:43.647Z,78.72
2019-05-29T06:30:45.098Z,78.14
2019-05-29T06:31:43.533Z,78.72
2019-05-29T06:32:43.696Z,79.67
2019-05-29T06:33:44.064Z,78.33
2019-05-29T06:34:43.867Z,78.62
2019-05-29T06:35:43.815Z,77.28
2019-05-29T06:36:44.018Z,78.37
2019-05-29T06:37:43.877Z,80.66
2019-05-29T06:38:44.483Z,80.47
2019-05-29T06:39:43.983Z,78.09
2019-05-29T06:40:44.108Z,77.99
2019-05-29T06:41:44.410Z,80.28
2019-05-29T06:42:44.025Z,79.99
2019-05-29T06:43:44.514Z,76.27
2019-05-29T06:44:47.443Z,85.82
2019-05-29T06:45:44.178Z,89.92
2019-05-29T06:46:45.276Z,90.31
2019-05-29T06:47:44.628Z,89.06
2019-05-29T06:48:56.367Z,84.39
2019-05-29T06:49:44.447Z,83.00
2019-05-29T06:50:44.289Z,83.00
2019-05-29T06:51:44.343Z,88.34
2019-05-29T06:52:44.375Z,85.10
2019-05-29T06:53:44.418Z,87.29
2019-05-29T06:54:44.457Z,83.67
2019-05-29T06:55:44.498Z,87.29
2019-05-29T06:56:44.540Z,90.35
2019-05-29T06:57:44.590Z,92.21
2019-05-29T06:58:44.623Z,93.55
2019-05-29T06:59:44.821Z,92.02
2019-05-29T07:00:44.901Z,93.93
2019-05-29T07:01:44.750Z,93.36
2019-05-29T07:02:44.930Z,91.54
2019-05-29T07:03:44.838Z,89.44
2019-05-29T07:04:44.881Z,93.55
2019-05-29T07:05:50.696Z,94.89
2019-05-29T07:06:44.971Z,97.37
2019-05-29T07:07:45.005Z,91.45
2019-05-29T07:08:48.373Z,97.28
2019-05-29T07:09:45.200Z,97.56
2019-05-29T07:10:45.143Z,97.18
2019-05-29T07:11:45.524Z,96.80
2019-05-29T07:12:46.391Z,95.75
2019-05-29T07:13:48.385Z,95.12
2019-05-29T07:14:46.545Z,97.61
2019-05-29T07:15:46.140Z,95.89
2019-05-29T07:16:55.618Z,95.03
2019-05-29T07:17:46.584Z,92.45
2019-05-29T07:19:20.491Z,97.42
2019-05-29T07:19:57.958Z,93.02
2019-05-29T07:20:45.562Z,93.36
2019-05-29T07:21:47.089Z,96.22
2019-05-29T07:22:47.007Z,97.28
2019-05-29T07:23:47.021Z,94.51
2019-05-29T07:24:46.940Z,93.93
2019-05-29T07:25:46.140Z,94.12
2019-05-29T07:26:45.818Z,97.04
2019-05-29T07:27:46.985Z,95.84
2019-05-29T07:29:01.979Z,95.36
2019-05-29T07:29:47.077Z,97.47
2019-05-29T07:30:54.454Z,96.27
2019-05-29T07:31:47.029Z,96.66
2019-05-29T07:32:56.272Z,97.04
2019-05-29T07:33:47.291Z,94.26
2019-05-29T07:34:56.713Z,93.31
2019-05-29T07:35:46.186Z,96.47
2019-05-29T07:36:46.229Z,98.47
2019-05-29T07:37:46.277Z,95.61
2019-05-29T07:39:01.141Z,96.18
2019-05-29T07:39:46.356Z,97.90
2019-05-29T07:40:48.137Z,95.79
2019-05-29T07:41:46.444Z,96.84
2019-05-29T07:42:53.382Z,94.31
2019-05-29T07:43:46.541Z,96.22
2019-05-29T07:44:46.569Z,97.28
2019-05-29T07:45:46.626Z,96.89
2019-05-29T07:46:47.084Z,97.56
2019-05-29T07:47:46.860Z,96.70
2019-05-29T07:48:49.595Z,97.56
2019-05-29T07:49:48.465Z,96.89
2019-05-29T07:50:46.823Z,97.56
2019-05-29T07:51:47.076Z,96.13
2019-05-29T07:52:47.453Z,97.08
2019-05-29T07:53:46.971Z,98.04
2019-05-29T07:54:48.038Z,96.08
2019-05-29T07:55:47.036Z,96.75
2019-05-29T07:56:47.079Z,95.32
2019-05-29T07:57:47.181Z,96.94
2019-05-29T07:58:56.699Z,99.38
2019-05-29T07:59:47.204Z,97.75
2019-05-29T08:01:09.632Z,97.37
2019-05-29T08:01:47.317Z,98.28
2019-05-29T08:02:47.647Z,99.99
2019-05-29T08:03:47.598Z,96.37
2019-05-29T08:04:47.417Z,99.05
2019-05-29T08:05:51.010Z,97.33
2019-05-29T08:06:52.254Z,97.38
2019-05-29T08:07:47.728Z,96.51
2019-05-29T08:08:47.588Z,98.10
2019-05-29T08:09:47.900Z,98.19
2019-05-29T08:10:47.702Z,97.56
2019-05-29T08:11:47.782Z,99.58
2019-05-29T08:12:53.171Z,97.47
2019-05-29T08:13:47.814Z,97.09
2019-05-29T08:14:47.961Z,97.14
2019-05-29T08:15:57.529Z,97.71
2019-05-29T08:16:48.183Z,98.52
2019-05-29T08:17:48.280Z,97.56
2019-05-29T08:18:49.477Z,96.61
2019-05-29T08:20:03.112Z,98.52
2019-05-29T08:20:48.247Z,96.99
2019-05-29T08:21:48.518Z,97.38
2019-05-29T08:22:48.579Z,98.14
2019-05-29T08:23:48.613Z,96.80
2019-05-29T08:24:49.499Z,97.47
2019-05-29T08:25:49.561Z,98.19
2019-05-29T08:26:48.948Z,97.66
2019-05-29T08:27:48.873Z,96.13
2019-05-29T08:28:48.927Z,95.84
2019-05-29T08:29:48.843Z,96.42
2019-05-29T08:30:55.525Z,95.65
2019-05-29T08:31:49.002Z,96.32
2019-05-29T08:32:49.192Z,96.13
2019-05-29T08:33:49.002Z,97.38
2019-05-29T08:34:49.097Z,96.80
2019-05-29T08:35:57.567Z,99.24
2019-05-29T08:37:04.794Z,97.61
2019-05-29T08:37:49.194Z,96.99
2019-05-29T08:38:49.281Z,97.09
2019-05-29T08:39:49.563Z,95.84
2019-05-29T08:40:49.518Z,97.28
2019-05-29T08:42:19.351Z,97.42
2019-05-29T08:42:49.423Z,96.27
2019-05-29T08:43:50.613Z,96.03
2019-05-29T08:44:50.043Z,94.79
2019-05-29T08:45:49.702Z,95.50
2019-05-29T08:47:06.779Z,96.56
2019-05-29T08:47:49.767Z,95.65
2019-05-29T08:48:49.980Z,95.65
2019-05-29T08:49:52.467Z,95.26
2019-05-29T08:50:49.947Z,95.17
2019-05-29T08:51:50.089Z,94.26
2019-05-29T08:52:50.122Z,94.45
2019-05-29T08:53:52.094Z,95.41
2019-05-29T08:54:50.139Z,95.36
2019-05-29T08:55:50.745Z,94.31
2019-05-29T08:56:50.370Z,94.98
2019-05-29T08:57:50.415Z,95.65
2019-05-29T08:58:50.691Z,95.56
2019-05-29T08:59:50.606Z,96.80
2019-05-29T09:00:53.595Z,96.03
2019-05-29T09:01:52.645Z,96.03
2019-05-29T09:02:51.177Z,95.65
2019-05-29T09:03:51.260Z,93.06
2019-05-29T09:04:51.859Z,94.98
2019-05-29T09:06:05.269Z,95.94
2019-05-29T09:06:51.167Z,94.40
2019-05-29T09:07:51.808Z,94.12
2019-05-29T09:08:52.055Z,93.44
2019-05-29T09:09:51.240Z,94.59
2019-05-29T09:10:51.892Z,94.98
2019-05-29T09:11:51.812Z,94.50
2019-05-29T09:13:02.301Z,94.59
2019-05-29T09:13:50.463Z,97.18
2019-05-29T09:14:50.509Z,96.70
2019-05-29T09:15:50.550Z,94.98
2019-05-29T09:16:50.596Z,94.89
2019-05-29T09:17:50.639Z,95.07
2019-05-29T09:18:50.682Z,95.84
2019-05-29T09:19:50.735Z,95.07
2019-05-29T09:21:03.002Z,94.40
2019-05-29T09:21:50.815Z,96.03
2019-05-29T09:22:50.863Z,94.59
2019-05-29T09:23:50.905Z,93.83
2019-05-29T09:24:50.953Z,94.59
2019-05-29T09:25:50.993Z,94.40
2019-05-29T09:26:51.034Z,94.59
2019-05-29T09:27:51.088Z,95.17
2019-05-29T09:28:51.159Z,94.79
2019-05-29T09:29:51.168Z,95.12
2019-05-29T09:30:51.218Z,93.11
2019-05-29T09:31:51.258Z,94.07
2019-05-29T09:32:52.981Z,94.35
2019-05-29T09:33:51.353Z,94.93
2019-05-29T09:34:51.391Z,94.88
2019-05-29T09:35:51.433Z,94.98
2019-05-29T09:36:54.746Z,93.35
2019-05-29T09:37:51.544Z,88.26
2019-05-29T09:38:51.576Z,90.52
2019-05-29T09:39:51.613Z,91.48
2019-05-29T09:40:52.812Z,91.14
2019-05-29T09:41:51.703Z,89.89
2019-05-29T09:42:51.747Z,87.11
2019-05-29T09:43:59.255Z,89.61
2019-05-29T09:44:51.834Z,88.74
2019-05-29T09:45:51.887Z,89.89
2019-05-29T09:46:51.942Z,87.30
2019-05-29T09:47:51.968Z,87.68
2019-05-29T09:48:52.042Z,85.96
2019-05-29T09:49:52.068Z,84.14
2019-05-29T09:50:52.105Z,83.71
2019-05-29T09:51:52.678Z,84.86
2019-05-29T09:52:54.471Z,81.60
2019-05-29T09:53:53.724Z,82.46
2019-05-29T09:54:53.444Z,82.85
2019-05-29T09:55:53.731Z,83.71
2019-05-29T09:56:54.190Z,84.23
2019-05-29T09:57:53.770Z,84.71
2019-05-29T09:58:53.623Z,86.15
2019-05-29T09:59:53.832Z,87.49
2019-05-29T10:01:09.806Z,88.45
2019-05-29T10:01:54.085Z,84.61
2019-05-29T10:02:52.855Z,86.25
2019-05-29T10:03:54.618Z,85.10
2019-05-29T10:04:54.320Z,87.49
2019-05-29T10:05:54.083Z,89.51
2019-05-29T10:06:53.344Z,90.99
2019-05-29T10:07:53.089Z,92.19
2019-05-29T10:08:54.125Z,92.58
2019-05-29T10:09:53.669Z,92.68
2019-05-29T10:11:01.467Z,91.72
2019-05-29T10:11:54.671Z,92.48
2019-05-29T10:12:53.480Z,93.92
2019-05-29T10:13:53.702Z,93.25
2019-05-29T10:14:53.700Z,93.06
2019-05-29T10:15:54.009Z,89.79
2019-05-29T10:16:56.023Z,90.90
2019-05-29T10:17:54.106Z,91.77
2019-05-29T10:18:54.266Z,90.90
2019-05-29T10:19:55.398Z,90.71
2019-05-29T10:20:54.797Z,91.96
2019-05-29T10:21:54.847Z,92.34
2019-05-29T10:22:55.487Z,91.52
2019-05-29T10:23:54.750Z,90.85
2019-05-29T10:24:53.617Z,89.89
2019-05-29T10:25:53.660Z,89.79
2019-05-29T10:26:53.813Z,89.79
2019-05-29T10:27:53.824Z,89.12
2019-05-29T10:29:06.751Z,88.26
2019-05-29T10:29:54.339Z,85.96
2019-05-29T10:30:53.884Z,84.42
2019-05-29T10:31:53.936Z,82.98
2019-05-29T10:32:54.019Z,84.42
2019-05-29T10:33:54.018Z,84.58
2019-05-29T10:34:54.067Z,82.46
2019-05-29T10:35:55.486Z,81.41
2019-05-29T10:36:54.807Z,83.71
2019-05-29T10:37:54.199Z,81.31
2019-05-29T10:38:54.249Z,79.97
2019-05-29T10:39:54.292Z,79.88
2019-05-29T10:41:05.601Z,81.02
2019-05-29T10:41:54.389Z,83.61
2019-05-29T10:42:54.420Z,84.33
2019-05-29T10:43:54.470Z,84.09
2019-05-29T10:44:54.514Z,85.77
2019-05-29T10:45:54.555Z,83.75
2019-05-29T10:46:56.312Z,83.18
2019-05-29T10:47:54.654Z,82.41
2019-05-29T10:48:56.658Z,81.16
2019-05-29T10:49:54.733Z,81.45
2019-05-29T10:50:55.463Z,80.20
2019-05-29T10:52:10.675Z,78.86
2019-05-29T10:52:54.865Z,78.09
2019-05-29T10:53:58.002Z,78.96
2019-05-29T10:54:54.961Z,81.26
2019-05-29T10:55:55.084Z,80.30
2019-05-29T10:56:55.149Z,78.38
2019-05-29T10:57:55.323Z,77.71
2019-05-29T10:58:59.560Z,77.33
2019-05-29T10:59:55.205Z,75.06
2019-05-29T11:00:55.631Z,70.36
2019-05-29T11:01:55.586Z,69.56
2019-05-29T11:02:57.485Z,71.61
2019-05-29T11:03:55.858Z,71.51
2019-05-29T11:04:58.887Z,73.27
2019-05-29T11:05:56.510Z,72.79
2019-05-29T11:06:56.908Z,73.94
2019-05-29T11:07:55.963Z,73.98
2019-05-29T11:08:56.255Z,71.67
2019-05-29T11:09:56.254Z,71.10
2019-05-29T11:10:56.333Z,69.95
2019-05-29T11:11:57.435Z,71.23
2019-05-29T11:12:56.754Z,69.02
2019-05-29T11:13:57.065Z,68.92
2019-05-29T11:14:56.927Z,69.31
2019-05-29T11:15:56.872Z,67.19
2019-05-29T11:16:57.400Z,65.43
2019-05-29T11:17:57.297Z,67.35
2019-05-29T11:18:57.340Z,65.62
2019-05-29T11:19:58.066Z,64.82
2019-05-29T11:20:56.132Z,65.53
2019-05-29T11:22:00.920Z,65.53
2019-05-29T11:22:56.216Z,65.78
2019-05-29T11:23:56.263Z,65.59
2019-05-29T11:24:56.718Z,65.69
2019-05-29T11:25:56.354Z,67.99
2019-05-29T11:26:56.682Z,67.90
2019-05-29T11:27:56.778Z,66.52
2019-05-29T11:28:56.709Z,67.00
2019-05-29T11:29:57.079Z,70.17
2019-05-29T11:30:57.238Z,69.81
2019-05-29T11:31:56.949Z,68.57
2019-05-29T11:32:57.590Z,68.18
2019-05-29T11:33:57.170Z,65.49
2019-05-29T11:34:57.502Z,66.64
2019-05-29T11:36:07.982Z,65.40
2019-05-29T11:36:56.888Z,64.82
2019-05-29T11:37:56.902Z,65.20
2019-05-29T11:39:02.910Z,66.87
2019-05-29T11:39:56.985Z,66.68
2019-05-29T11:41:19.411Z,64.85
2019-05-29T11:41:57.076Z,66.39
2019-05-29T11:42:57.125Z,66.20
2019-05-29T11:43:57.174Z,65.53
2019-05-29T11:44:57.223Z,68.83
2019-05-29T11:45:57.409Z,69.69
2019-05-29T11:46:58.191Z,69.53
2019-05-29T11:47:59.564Z,65.50
2019-05-29T11:48:57.453Z,62.23
2019-05-29T11:50:07.530Z,63.38
2019-05-29T11:50:58.265Z,64.73
2019-05-29T11:52:18.785Z,63.76
2019-05-29T11:52:58.552Z,65.01
2019-05-29T11:53:57.638Z,64.95
2019-05-29T11:54:59.952Z,66.01
2019-05-29T11:55:57.872Z,67.45
2019-05-29T11:56:59.033Z,64.56
2019-05-29T11:57:57.999Z,62.61
2019-05-29T11:58:58.950Z,63.70
2019-05-29T12:00:02.124Z,62.32
2019-05-29T12:00:59.129Z,62.51
2019-05-29T12:01:59.289Z,61.26
2019-05-29T12:02:59.557Z,61.16
2019-05-29T12:04:21.939Z,61.46
2019-05-29T12:05:02.737Z,60.11
2019-05-29T12:05:59.331Z,60.01
2019-05-29T12:06:59.521Z,60.81
2019-05-29T12:07:59.498Z,62.83
2019-05-29T12:08:59.747Z,61.77
2019-05-29T12:09:59.504Z,61.00
2019-05-29T12:10:59.474Z,62.26
2019-05-29T12:12:00.174Z,62.77
2019-05-29T12:12:59.644Z,59.85
2019-05-29T12:14:00.340Z,58.98
2019-05-29T12:15:08.360Z,61.00
2019-05-29T12:15:59.655Z,62.35
2019-05-29T12:17:00.276Z,60.91
2019-05-29T12:18:21.849Z,60.04
2019-05-29T12:18:59.823Z,60.01
2019-05-29T12:19:59.885Z,60.11
2019-05-29T12:21:00.874Z,62.35
2019-05-29T12:22:00.445Z,63.41
2019-05-29T12:23:18.569Z,62.26
2019-05-29T12:24:00.194Z,60.21
2019-05-29T12:24:59.047Z,60.97
2019-05-29T12:26:16.659Z,61.36
2019-05-29T12:26:59.140Z,61.16
2019-05-29T12:27:59.349Z,61.14
2019-05-29T12:29:08.641Z,63.92
2019-05-29T12:29:59.276Z,63.92
2019-05-29T12:30:59.328Z,65.27
2019-05-29T12:31:59.367Z,64.40
2019-05-29T12:32:59.415Z,64.98
2019-05-29T12:34:10.344Z,64.82
2019-05-29T12:34:59.750Z,64.53
2019-05-29T12:35:59.551Z,65.20
2019-05-29T12:36:59.676Z,66.01
2019-05-29T12:37:59.643Z,65.33
2019-05-29T12:38:59.720Z,59.20
2019-05-29T12:40:00.047Z,56.80
2019-05-29T12:40:59.904Z,56.41
2019-05-29T12:41:59.944Z,55.83
2019-05-29T12:43:00.283Z,57.67
2019-05-29T12:43:59.921Z,56.90
2019-05-29T12:44:59.965Z,57.57
2019-05-29T12:46:00.226Z,59.04
2019-05-29T12:47:00.057Z,60.84
2019-05-29T12:48:00.121Z,61.04
2019-05-29T12:49:00.162Z,60.65
2019-05-29T12:50:00.575Z,62.19
2019-05-29T12:51:00.695Z,62.09
2019-05-29T12:52:01.422Z,61.00
2019-05-29T12:53:01.618Z,61.00